Latest Weather Observations for Port Kembla Harbour

IDN60801

Issued at 12:32 pm EDT Sunday 14 February 2016 (issued every 30 minutes, with the page automatically refreshed every 10 minutes)

About weather observations | Map of weather stations | Latest weather observations for NSW | Other Formats
Station Details ID: 068253 Name: PORT KEMBLA NTC AWS Lat: -34.47 Lon: 150.91 Height: 0.0 m
Data from the previous 72 hours. | See also: Recent months for locations in New South Wales
Date/Time
EDT
Temp
°C
App
Temp
°C
Dew
Point
Rel
Hum
%
Delta-T
°C
Wind Press
QNH
hPa
Press
MSL
hPa
Rain
since 9 am
mm
Dir
 
Spd
km/h
Gust
km/h
Spd
kts
Gust
kts
14/12:30pm 24.5 - - - - SSE 13 24 7 13 1007.1 1007.1 -
14/12:00pm 24.0 - - - - SE 15 22 8 12 1007.0 1007.0 -
14/11:30am 25.0 - - - - SSE 13 26 7 14 1007.3 1007.3 -
14/11:00am 26.0 - - - - SSE 11 19 6 10 1007.6 1007.6 -
14/10:30am 25.0 - - - - ENE 11 19 6 10 1007.2 1007.2 -
14/10:00am 24.6 - - - - NE 13 22 7 12 1006.7 1006.7 -
14/09:30am 24.4 - - - - NE 17 22 9 12 1006.5 1006.5 -
14/09:00am 24.2 - - - - NE 17 22 9 12 1006.8 1006.8 -
14/08:30am 24.1 - - - - NE 17 22 9 12 1006.8 1006.8 -
14/08:00am 23.7 - - - - NE 17 24 9 13 1006.8 1006.8 -
14/07:30am 23.7 - - - - NE 11 17 6 9 1006.6 1006.6 -
14/07:00am 23.3 - - - - NE 19 22 10 12 1006.5 1006.5 -
14/06:30am 23.3 - - - - NNE 17 22 9 12 1006.7 1006.7 -
14/06:00am 23.3 - - - - NE 15 19 8 10 1006.4 1006.4 -
14/05:30am 23.2 - - - - NE 19 24 10 13 1006.1 1006.1 -
14/05:00am 23.2 - - - - NE 17 22 9 12 1006.4 1006.4 -
14/04:30am 23.5 - - - - NNE 13 19 7 10 1006.4 1006.4 -
14/04:00am 23.8 - - - - N 15 24 8 13 1006.5 1006.5 -
14/03:30am 23.9 - - - - NNE 11 20 6 11 1006.8 1006.8 -
14/03:00am 24.1 - - - - NNE 19 28 10 15 1006.9 1006.9 -
14/02:30am 24.0 - - - - NNE 19 24 10 13 1007.2 1007.2 -
14/02:00am 24.0 - - - - NNE 17 22 9 12 1007.4 1007.4 -
14/01:30am 24.2 - - - - NNE 17 20 9 11 1007.8 1007.8 -
14/01:00am 24.1 - - - - NNE 15 22 8 12 1008.2 1008.2 -
14/12:30am 23.9 - - - - NNE 11 17 6 9 1008.6 1008.6 -
14/12:00am 24.0 - - - - NNE 15 19 8 10 1008.7 1008.7 -
 
Date/Time
EDT
Temp
°C
App
Temp
°C
Dew
Point
Rel
Hum
%
Delta-T
°C
Wind Press
QNH
hPa
Press
MSL
hPa
Rain
since 9 am
mm
Dir
 
Spd
km/h
Gust
km/h
Spd
kts
Gust
kts
13/11:30pm 23.7 - - - - NNE 13 17 7 9 1009.1 1009.1 -
13/11:00pm 24.0 - - - - N 17 22 9 12 1009.2 1009.2 -
13/10:30pm 23.9 - - - - NNE 17 22 9 12 1009.6 1009.6 -
13/10:00pm 24.0 - - - - NNE 17 20 9 11 1009.7 1009.7 -
13/09:30pm 24.0 - - - - NNE 20 26 11 14 1009.6 1009.6 -
13/09:00pm 24.0 - - - - NE 22 28 12 15 1009.4 1009.4 -
13/08:30pm 24.1 - - - - NE 28 33 15 18 1009.2 1009.2 -
13/08:00pm 24.3 - - - - NE 30 41 16 22 1009.0 1009.0 -
13/07:30pm 24.4 - - - - NE 30 43 16 23 1008.7 1008.7 -
13/07:00pm 24.3 - - - - NE 32 43 17 23 1008.5 1008.5 -
13/06:30pm 24.2 - - - - NE 32 43 17 23 1008.5 1008.5 -
13/06:00pm 24.3 - - - - NE 32 43 17 23 1008.6 1008.6 -
13/05:30pm 24.4 - - - - NE 32 44 17 24 1008.8 1008.8 -
13/05:00pm 24.5 - - - - NE 30 41 16 22 1009.0 1009.0 -
13/04:30pm 24.4 - - - - NE 30 41 16 22 1009.2 1009.2 -
13/04:00pm 24.4 - - - - NE 30 37 16 20 1009.6 1009.6 -
13/03:30pm 24.6 - - - - NE 26 35 14 19 1009.8 1009.8 -
13/03:00pm 24.5 - - - - NE 28 37 15 20 1010.2 1010.2 -
13/02:30pm 24.6 - - - - NE 26 33 14 18 1010.6 1010.6 -
13/02:00pm 24.7 - - - - NE 24 33 13 18 1011.1 1011.1 -
13/01:30pm 24.5 - - - - NE 24 35 13 19 1011.6 1011.6 -
13/01:00pm 24.4 - - - - NE 28 37 15 20 1011.9 1011.9 -
13/12:30pm 24.3 - - - - NE 26 37 14 20 1012.1 1012.1 -
13/12:00pm 24.3 - - - - NE 24 35 13 19 1012.4 1012.4 -
13/11:30am 24.4 - - - - NE 24 32 13 17 1012.7 1012.7 -
13/11:00am 24.5 - - - - NE 24 32 13 17 1012.9 1012.9 -
13/10:30am 24.4 - - - - NE 20 26 11 14 1013.0 1013.0 -
13/10:00am 24.4 - - - - NNE 17 22 9 12 1013.1 1013.1 -
13/09:30am 24.1 - - - - NNE 15 20 8 11 1013.2 1013.2 -
13/09:00am 23.8 - - - - NNE 13 19 7 10 1013.3 1013.3 -
13/08:30am 23.6 - - - - N 15 20 8 11 1013.5 1013.5 -
13/08:00am 23.1 - - - - N 13 20 7 11 1013.5 1013.5 -
13/07:30am 22.8 - - - - N 13 17 7 9 1013.4 1013.4 -
13/07:00am 22.6 - - - - N 13 20 7 11 1013.3 1013.3 -
13/06:30am 22.4 - - - - N 15 19 8 10 1013.1 1013.1 -
13/06:00am 22.6 - - - - N 13 19 7 10 1013.0 1013.0 -
13/05:30am 22.8 - - - - N 13 19 7 10 1012.9 1012.9 -
13/05:00am 22.9 - - - - N 13 20 7 11 1012.9 1012.9 -
13/04:30am 23.1 - - - - N 9 15 5 8 1013.1 1013.1 -
13/04:00am 23.1 - - - - N 11 17 6 9 1013.2 1013.2 -
13/03:30am 23.2 - - - - N 9 19 5 10 1013.4 1013.4 -
13/03:00am 23.2 - - - - N 13 17 7 9 1013.5 1013.5 -
13/02:30am 23.2 - - - - N 13 17 7 9 1013.6 1013.6 -
13/02:00am 23.3 - - - - N 13 17 7 9 1013.8 1013.8 -
13/01:30am 23.5 - - - - N 11 15 6 8 1014.2 1014.2 -
13/01:00am 23.6 - - - - NNE 13 17 7 9 1014.4 1014.4 -
13/12:30am 23.7 - - - - N 11 17 6 9 1014.7 1014.7 -
13/12:00am 23.8 - - - - N 13 20 7 11 1014.9 1014.9 -
 
Date/Time
EDT
Temp
°C
App
Temp
°C
Dew
Point
Rel
Hum
%
Delta-T
°C
Wind Press
QNH
hPa
Press
MSL
hPa
Rain
since 9 am
mm
Dir
 
Spd
km/h
Gust
km/h
Spd
kts
Gust
kts
12/11:30pm 24.0 - - - - NNE 20 26 11 14 1014.9 1014.9 -
12/11:00pm 24.2 - - - - NNE 24 32 13 17 1014.9 1014.9 -
12/10:30pm 24.2 - - - - NNE 20 26 11 14 1015.2 1015.2 -
12/10:00pm 24.4 - - - - NE 22 30 12 16 1015.4 1015.4 -
12/09:30pm 24.4 - - - - NE 22 28 12 15 1015.2 1015.2 -
12/09:00pm 24.4 - - - - NE 20 28 11 15 1014.9 1014.9 -
12/08:30pm 24.5 - - - - NE 20 28 11 15 1014.7 1014.7 -
12/08:00pm 24.5 - - - - NNE 22 28 12 15 1014.5 1014.5 -
12/07:30pm 24.4 - - - - NNE 20 26 11 14 1014.3 1014.3 -
12/07:00pm 24.6 - - - - NE 19 26 10 14 1013.7 1013.7 -
12/06:30pm 24.6 - - - - NE 19 26 10 14 1013.7 1013.7 -
12/06:00pm 24.8 - - - - NE 20 26 11 14 1013.7 1013.7 -
12/05:30pm 24.9 - - - - NE 17 24 9 13 1013.7 1013.7 -
12/05:00pm 24.9 - - - - NE 15 20 8 11 1013.6 1013.6 -
12/04:30pm 24.9 - - - - NE 17 24 9 13 1013.7 1013.7 -
12/04:00pm 24.8 - - - - NE 19 26 10 14 1013.9 1013.9 -
12/03:30pm 24.8 - - - - NE 19 26 10 14 1014.2 1014.2 -
12/03:00pm 24.8 - - - - NE 19 26 10 14 1014.5 1014.5 -
12/02:30pm 24.7 - - - - ENE 17 22 9 12 1014.7 1014.7 -
12/02:00pm 24.6 - - - - ENE 19 28 10 15 1014.8 1014.8 -
12/01:30pm 24.3 - - - - ENE 15 22 8 12 1015.0 1015.0 -
12/01:00pm 24.1 - - - - ENE 17 20 9 11 1015.2 1015.2 -
12/12:30pm 24.2 - - - - ENE 15 20 8 11 1015.5 1015.5 -
12/12:00pm 24.1 - - - - E 11 19 6 10 1016.1 1016.1 -
12/11:30am 24.2 - - - - E 9 15 5 8 1016.2 1016.2 -
12/11:00am 24.0 - - - - E 9 17 5 9 1016.1 1016.1 -
12/10:30am 23.7 - - - - ESE 9 11 5 6 1016.3 1016.3 -
12/10:00am 23.8 - - - - SE 7 9 4 5 1016.5 1016.5 -
12/09:30am 23.9 - - - - SE 7 9 4 5 1016.6 1016.6 -
12/09:00am 23.6 - - - - SE 6 9 3 5 1016.6 1016.6 -
12/08:30am 23.1 - - - - WSW 6 7 3 4 1016.4 1016.4 -
12/08:00am 22.5 - - - - SW 7 9 4 5 1016.1 1016.1 -
12/07:30am 22.0 - - - - WSW 6 7 3 4 1015.7 1015.7 -
12/07:00am 21.2 - - - - W 6 7 3 4 1015.4 1015.4 -
12/06:30am 21.1 - - - - WSW 6 6 3 3 1015.2 1015.2 -
12/06:00am 21.0 - - - - W 7 9 4 5 1014.9 1014.9 -
12/05:30am 21.6 - - - - W 6 6 3 3 1014.5 1014.5 -
12/05:00am 21.6 - - - - SW 6 7 3 4 1014.3 1014.3 -
12/04:30am 21.9 - - - - SW 6 7 3 4 1014.5 1014.5 -
12/04:00am 22.1 - - - - SW 4 7 2 4 1014.4 1014.4 -
12/03:30am 22.3 - - - - WSW 6 7 3 4 1014.7 1014.7 -
12/03:00am 22.3 - - - - W 7 9 4 5 1014.7 1014.7 -
12/02:30am 23.3 - - - - NNE 4 6 2 3 1014.6 1014.6 -
12/02:00am 23.1 - - - - W 2 4 1 2 1014.8 1014.8 -
12/01:30am 23.2 - - - - SW 2 4 1 2 1015.0 1015.0 -
12/01:00am 23.9 - - - - W 6 7 3 4 1015.6 1015.6 -
12/12:30am 23.9 - - - - NNE 6 9 3 5 1015.6 1015.6 -
12/12:00am 24.0 - - - - NNE 7 11 4 6 1015.8 1015.8 -

Other Formats:

Comma delimited format used in spreadsheet applications
http://www.bom.gov.au/fwo/IDN60801/IDN60801.95745.axf

JavaScript Object Notation format (JSON) in row-major order
http://www.bom.gov.au/fwo/IDN60801/IDN60801.95745.json